XAX223 YSSY-WMKK
Flight info
| Callsign | XAX223 |
|---|---|
| Flight time | N/A |
| Altitude | 36000 |
| Route | KADOM A576 CIN/N0468F380 A576 ATMAP M635 VTK/N0459F370 B338 IRTAD/N0458F380 A464 SJ G579 VJB A457 GUPTA GUPTA1K |
| Aircraft | A333/H-SDE3GHIJ2J3J5M1RVWXY/LB2D1 |
Departure
| Time | 2026-04-25 23:03 |
|---|---|
| Airport | Sydney Kingsford Smith International Airport (YSSY) |
Arrival
| Time | N/A |
|---|---|
| Airport | Kuala Lumpur International Airport (WMKK) |
| Time | Latitude | Longitude | Altitude | Speed | Heading |
|---|---|---|---|---|---|
| 2026-04-25 22:25 | -33.93934 | 151.16463 | 26 ft | 0 kts | 150° |
| 2026-04-25 22:48 | -33.93925 | 151.16455 | 26 ft | 2 kts | 136° |
| 2026-04-25 22:48 | -33.93916 | 151.16441 | 26 ft | 2 kts | 117° |
| 2026-04-25 22:48 | -33.93911 | 151.16431 | 26 ft | 2 kts | 111° |
| 2026-04-25 22:49 | -33.93906 | 151.16414 | 26 ft | 2 kts | 114° |
| 2026-04-25 22:49 | -33.93899 | 151.16397 | 25 ft | 2 kts | 114° |
| 2026-04-25 22:49 | -33.93892 | 151.16380 | 25 ft | 2 kts | 139° |
| 2026-04-25 22:49 | -33.93875 | 151.16370 | 24 ft | 2 kts | 171° |
| 2026-04-25 22:50 | -33.93866 | 151.16368 | 24 ft | 0 kts | 185° |
| 2026-04-25 22:50 | -33.93861 | 151.16370 | 24 ft | 0 kts | 185° |
| 2026-04-25 22:52 | -33.93861 | 151.16368 | 24 ft | 0 kts | 185° |
| 2026-04-25 22:52 | -33.93866 | 151.16367 | 24 ft | 2 kts | 209° |
| 2026-04-25 22:52 | -33.93880 | 151.16350 | 24 ft | 5 kts | 223° |
| 2026-04-25 22:52 | -33.93922 | 151.16312 | 22 ft | 8 kts | 204° |
| 2026-04-25 22:53 | -33.94015 | 151.16283 | 21 ft | 11 kts | 190° |
| 2026-04-25 22:53 | -33.94092 | 151.16275 | 20 ft | 11 kts | 174° |
| 2026-04-25 22:53 | -33.94161 | 151.16315 | 20 ft | 10 kts | 129° |
| 2026-04-25 22:53 | -33.94172 | 151.16370 | 20 ft | 9 kts | 83° |
| 2026-04-25 22:54 | -33.94152 | 151.16457 | 22 ft | 6 kts | 74° |
| 2026-04-25 22:54 | -33.94145 | 151.16490 | 23 ft | 6 kts | 74° |
| 2026-04-25 22:54 | -33.94130 | 151.16556 | 25 ft | 11 kts | 74° |
| 2026-04-25 22:54 | -33.94081 | 151.16756 | 28 ft | 22 kts | 73° |
| 2026-04-25 22:55 | -33.94043 | 151.16922 | 29 ft | 19 kts | 74° |
| 2026-04-25 22:55 | -33.94019 | 151.17023 | 29 ft | 15 kts | 74° |
| 2026-04-25 22:55 | -33.93993 | 151.17131 | 27 ft | 10 kts | 74° |
| 2026-04-25 22:55 | -33.93995 | 151.17221 | 24 ft | 11 kts | 126° |
| 2026-04-25 22:56 | -33.94063 | 151.17248 | 24 ft | 10 kts | 169° |
| 2026-04-25 22:56 | -33.94132 | 151.17265 | 24 ft | 10 kts | 168° |
| 2026-04-25 22:56 | -33.94276 | 151.17303 | 26 ft | 18 kts | 168° |
| 2026-04-25 22:56 | -33.94406 | 151.17337 | 26 ft | 19 kts | 168° |
| 2026-04-25 22:57 | -33.94493 | 151.17358 | 26 ft | 18 kts | 168° |
| 2026-04-25 22:57 | -33.94619 | 151.17390 | 26 ft | 18 kts | 168° |
| 2026-04-25 22:57 | -33.94785 | 151.17435 | 24 ft | 18 kts | 168° |
| 2026-04-25 22:57 | -33.94870 | 151.17458 | 23 ft | 18 kts | 168° |
| 2026-04-25 22:58 | -33.95034 | 151.17499 | 22 ft | 18 kts | 168° |
| 2026-04-25 22:58 | -33.95159 | 151.17532 | 20 ft | 18 kts | 167° |
| 2026-04-25 22:58 | -33.95242 | 151.17554 | 20 ft | 17 kts | 168° |
| 2026-04-25 22:58 | -33.95363 | 151.17584 | 19 ft | 17 kts | 168° |
| 2026-04-25 22:59 | -33.95481 | 151.17615 | 19 ft | 17 kts | 168° |
| 2026-04-25 22:59 | -33.95610 | 151.17648 | 19 ft | 19 kts | 168° |
| 2026-04-25 22:59 | -33.95782 | 151.17694 | 20 ft | 18 kts | 167° |
| 2026-04-25 22:59 | -33.95907 | 151.17726 | 20 ft | 17 kts | 168° |
| 2026-04-25 23:00 | -33.96029 | 151.17758 | 20 ft | 18 kts | 168° |
| 2026-04-25 23:00 | -33.96156 | 151.17790 | 20 ft | 18 kts | 168° |
| 2026-04-25 23:00 | -33.96238 | 151.17812 | 20 ft | 17 kts | 168° |
| 2026-04-25 23:00 | -33.96397 | 151.17854 | 17 ft | 17 kts | 161° |
| 2026-04-25 23:01 | -33.96437 | 151.17894 | 19 ft | 8 kts | 115° |
| 2026-04-25 23:01 | -33.96431 | 151.17992 | 20 ft | 9 kts | 78° |
| 2026-04-25 23:01 | -33.96410 | 151.18053 | 20 ft | 5 kts | 35° |
| 2026-04-25 23:01 | -33.96375 | 151.18051 | 20 ft | 4 kts | 348° |
| 2026-04-25 23:02 | -33.96342 | 151.18043 | 20 ft | 10 kts | 348° |
| 2026-04-25 23:02 | -33.96059 | 151.17969 | 20 ft | 73 kts | 348° |
| 2026-04-25 23:02 | -33.95363 | 151.17789 | 21 ft | 130 kts | 347° |
| 2026-04-25 23:02 | -33.94687 | 151.17613 | 28 ft | 162 kts | 348° |
| 2026-04-25 23:03 | -33.93092 | 151.17217 | 635 ft | 171 kts | 349° |
| 2026-04-25 23:03 | -33.92358 | 151.17050 | 1191 ft | 161 kts | 350° |
| 2026-04-25 23:03 | -33.91356 | 151.16524 | 1903 ft | 157 kts | 323° |
| 2026-04-25 23:03 | -33.90556 | 151.15012 | 2481 ft | 175 kts | 289° |
| 2026-04-25 23:04 | -33.90270 | 151.14053 | 2878 ft | 183 kts | 299° |
| 2026-04-25 23:04 | -33.89705 | 151.12772 | 3701 ft | 169 kts | 302° |
| 2026-04-25 23:04 | -33.89101 | 151.11517 | 3933 ft | 178 kts | 303° |
| 2026-04-25 23:04 | -33.88231 | 151.09802 | 4439 ft | 178 kts | 304° |
| 2026-04-25 23:05 | -33.87559 | 151.08513 | 4682 ft | 188 kts | 304° |
| 2026-04-25 23:05 | -33.87080 | 151.07606 | 4799 ft | 196 kts | 304° |
| 2026-04-25 23:05 | -33.86315 | 151.06168 | 4976 ft | 210 kts | 304° |
| 2026-04-25 23:05 | -33.85482 | 151.04611 | 5085 ft | 232 kts | 304° |
| 2026-04-25 23:06 | -33.84567 | 151.02916 | 5394 ft | 249 kts | 304° |
| 2026-04-25 23:06 | -33.83458 | 151.00331 | 5821 ft | 274 kts | 282° |
| 2026-04-25 23:06 | -33.83294 | 150.98822 | 6182 ft | 279 kts | 278° |
| 2026-04-25 23:06 | -33.82962 | 150.96527 | 6893 ft | 279 kts | 282° |
| 2026-04-25 23:07 | -33.82445 | 150.93463 | 7796 ft | 282 kts | 283° |
| 2026-04-25 23:07 | -33.82175 | 150.91913 | 8223 ft | 284 kts | 283° |
| 2026-04-25 23:07 | -33.81768 | 150.89606 | 8870 ft | 287 kts | 283° |
| 2026-04-25 23:07 | -33.81352 | 150.87244 | 9512 ft | 289 kts | 283° |
| 2026-04-25 23:08 | -33.80930 | 150.84862 | 10121 ft | 292 kts | 283° |
| 2026-04-25 23:08 | -33.80505 | 150.82461 | 10652 ft | 298 kts | 282° |
| 2026-04-25 23:08 | -33.80054 | 150.79924 | 10908 ft | 316 kts | 282° |
| 2026-04-25 23:08 | -33.79583 | 150.77267 | 11092 ft | 335 kts | 282° |
| 2026-04-25 23:09 | -33.79079 | 150.74432 | 11255 ft | 353 kts | 282° |
| 2026-04-25 23:09 | -33.78555 | 150.71489 | 11468 ft | 369 kts | 282° |
| 2026-04-25 23:09 | -33.78016 | 150.68465 | 12011 ft | 374 kts | 282° |
| 2026-04-25 23:09 | -33.77466 | 150.65387 | 12643 ft | 376 kts | 282° |
| 2026-04-25 23:10 | -33.76730 | 150.61275 | 13416 ft | 379 kts | 282° |
| 2026-04-25 23:10 | -33.76362 | 150.59229 | 13801 ft | 381 kts | 282° |
| 2026-04-25 23:10 | -33.75797 | 150.56079 | 14329 ft | 385 kts | 282° |
| 2026-04-25 23:10 | -33.75226 | 150.52902 | 14858 ft | 388 kts | 282° |
| 2026-04-25 23:11 | -33.74463 | 150.48662 | 15521 ft | 393 kts | 282° |
| 2026-04-25 23:11 | -33.74078 | 150.46529 | 15881 ft | 394 kts | 282° |
| 2026-04-25 23:11 | -33.73495 | 150.43297 | 16403 ft | 397 kts | 282° |
| 2026-04-25 23:11 | -33.72713 | 150.38974 | 17035 ft | 401 kts | 282° |
| 2026-04-25 23:12 | -33.72317 | 150.36787 | 17375 ft | 403 kts | 282° |
| 2026-04-25 23:12 | -33.71513 | 150.32358 | 17986 ft | 407 kts | 283° |
| 2026-04-25 23:12 | -33.70843 | 150.29071 | 18443 ft | 409 kts | 288° |
| 2026-04-25 23:12 | -33.69953 | 150.25815 | 18861 ft | 412 kts | 289° |
| 2026-04-25 23:13 | -33.69356 | 150.23618 | 19163 ft | 414 kts | 289° |
| 2026-04-25 23:13 | -33.68455 | 150.20300 | 19635 ft | 416 kts | 289° |
| 2026-04-25 23:13 | -33.67253 | 150.15884 | 20193 ft | 420 kts | 289° |
| 2026-04-25 23:13 | -33.66650 | 150.13673 | 20469 ft | 421 kts | 289° |
| 2026-04-25 23:14 | -33.65731 | 150.10300 | 20848 ft | 424 kts | 289° |
| 2026-04-25 23:14 | -33.64806 | 150.06914 | 21250 ft | 427 kts | 289° |
| 2026-04-25 23:14 | -33.63889 | 150.03554 | 21638 ft | 429 kts | 289° |
| 2026-04-25 23:14 | -33.62952 | 150.00133 | 22015 ft | 431 kts | 289° |
| 2026-04-25 23:15 | -33.62007 | 149.96681 | 22369 ft | 434 kts | 289° |
| 2026-04-25 23:15 | -33.61069 | 149.93265 | 22750 ft | 435 kts | 289° |
| 2026-04-25 23:15 | -33.60114 | 149.89783 | 23077 ft | 438 kts | 289° |
| 2026-04-25 23:15 | -33.59159 | 149.86313 | 23428 ft | 440 kts | 289° |
| 2026-04-25 23:16 | -33.58194 | 149.82809 | 23751 ft | 443 kts | 289° |
| 2026-04-25 23:16 | -33.57227 | 149.79301 | 24106 ft | 444 kts | 289° |
| 2026-04-25 23:16 | -33.56253 | 149.75774 | 24486 ft | 446 kts | 289° |
| 2026-04-25 23:16 | -33.55280 | 149.72249 | 24822 ft | 448 kts | 289° |
| 2026-04-25 23:17 | -33.54295 | 149.68692 | 25151 ft | 450 kts | 289° |
| 2026-04-25 23:17 | -33.53308 | 149.65131 | 25489 ft | 451 kts | 289° |
| 2026-04-25 23:17 | -33.52308 | 149.61525 | 25822 ft | 453 kts | 289° |
| 2026-04-25 23:17 | -33.51315 | 149.57951 | 26142 ft | 455 kts | 289° |
| 2026-04-25 23:18 | -33.49972 | 149.53125 | 26555 ft | 458 kts | 289° |
| 2026-04-25 23:18 | -33.49291 | 149.50678 | 26743 ft | 459 kts | 289° |
| 2026-04-25 23:18 | -33.48283 | 149.47064 | 27070 ft | 461 kts | 289° |
| 2026-04-25 23:18 | -33.47260 | 149.43398 | 27415 ft | 462 kts | 289° |
| 2026-04-25 23:19 | -33.46245 | 149.39766 | 27734 ft | 463 kts | 289° |
| 2026-04-25 23:19 | -33.45209 | 149.36064 | 28024 ft | 465 kts | 289° |
| 2026-04-25 23:19 | -33.44175 | 149.32379 | 28316 ft | 467 kts | 289° |
| 2026-04-25 23:19 | -33.43147 | 149.28711 | 28592 ft | 468 kts | 289° |
| 2026-04-25 23:20 | -33.42099 | 149.24985 | 28868 ft | 469 kts | 289° |
| 2026-04-25 23:20 | -33.41058 | 149.21284 | 29126 ft | 471 kts | 289° |
| 2026-04-25 23:20 | -33.40004 | 149.17543 | 29337 ft | 473 kts | 289° |
| 2026-04-25 23:20 | -33.38947 | 149.13792 | 29580 ft | 474 kts | 289° |
| 2026-04-25 23:21 | -33.37894 | 149.10066 | 29907 ft | 473 kts | 289° |
| 2026-04-25 23:21 | -33.36829 | 149.06300 | 30260 ft | 472 kts | 289° |
| 2026-04-25 23:21 | -33.35769 | 149.02559 | 30619 ft | 471 kts | 289° |
| 2026-04-25 23:21 | -33.34711 | 148.98834 | 31017 ft | 468 kts | 289° |
| 2026-04-25 23:22 | -33.33668 | 148.95158 | 31391 ft | 466 kts | 289° |
| 2026-04-25 23:22 | -33.32611 | 148.91440 | 31802 ft | 463 kts | 288° |
| 2026-04-25 23:22 | -33.31220 | 148.86556 | 32258 ft | 461 kts | 288° |
| 2026-04-25 23:23 | -33.29499 | 148.80522 | 32751 ft | 460 kts | 288° |
| 2026-04-25 23:23 | -33.28453 | 148.76865 | 33050 ft | 458 kts | 288° |
| 2026-04-25 23:23 | -33.27418 | 148.73244 | 33303 ft | 458 kts | 288° |
| 2026-04-25 23:23 | -33.26380 | 148.69620 | 33594 ft | 457 kts | 288° |
| 2026-04-25 23:24 | -33.25360 | 148.66063 | 33913 ft | 455 kts | 288° |
| 2026-04-25 23:24 | -33.24322 | 148.62448 | 34248 ft | 453 kts | 287° |
| 2026-04-25 23:24 | -33.23308 | 148.58917 | 34522 ft | 452 kts | 287° |
| 2026-04-25 23:24 | -33.22282 | 148.55354 | 34761 ft | 452 kts | 288° |
| 2026-04-25 23:25 | -33.21255 | 148.51788 | 35058 ft | 451 kts | 288° |
| 2026-04-25 23:25 | -33.20227 | 148.48230 | 35314 ft | 450 kts | 288° |
| 2026-04-25 23:25 | -33.19208 | 148.44704 | 35445 ft | 452 kts | 288° |
| 2026-04-25 23:25 | -33.18183 | 148.41161 | 35592 ft | 452 kts | 288° |
| 2026-04-25 23:26 | -33.17141 | 148.37563 | 35744 ft | 453 kts | 288° |
| 2026-04-25 23:26 | -33.16113 | 148.34018 | 35888 ft | 453 kts | 288° |
| 2026-04-25 23:26 | -33.15077 | 148.30452 | 36046 ft | 453 kts | 288° |
| 2026-04-25 23:26 | -33.14052 | 148.26921 | 36196 ft | 453 kts | 288° |
| 2026-04-25 23:27 | -33.12846 | 148.23433 | 36309 ft | 451 kts | 296° |
| 2026-04-25 23:27 | -33.09507 | 148.17050 | 36302 ft | 452 kts | 301° |
| 2026-04-25 23:28 | -33.06091 | 148.10750 | 36294 ft | 453 kts | 301° |
| 2026-04-25 23:28 | -33.02646 | 148.04405 | 36293 ft | 453 kts | 301° |
| 2026-04-25 23:29 | -32.99221 | 147.98105 | 36288 ft | 453 kts | 301° |
| 2026-04-25 23:29 | -32.95798 | 147.91821 | 36289 ft | 453 kts | 301° |
| 2026-04-25 23:30 | -32.92340 | 147.85484 | 36287 ft | 453 kts | 301° |
| 2026-04-25 23:30 | -32.88920 | 147.79228 | 36285 ft | 451 kts | 301° |
| 2026-04-25 23:31 | -32.85486 | 147.72954 | 36280 ft | 450 kts | 302° |
| 2026-04-25 23:31 | -32.82052 | 147.66693 | 36280 ft | 450 kts | 302° |
| 2026-04-25 23:32 | -32.78635 | 147.60472 | 36279 ft | 449 kts | 302° |
| 2026-04-25 23:32 | -32.75201 | 147.54234 | 36281 ft | 449 kts | 302° |
| 2026-04-25 23:33 | -32.71766 | 147.47998 | 36279 ft | 449 kts | 302° |
| 2026-04-25 23:33 | -32.68359 | 147.41829 | 36277 ft | 448 kts | 302° |
| 2026-04-25 23:34 | -32.64931 | 147.35629 | 36280 ft | 448 kts | 302° |
| 2026-04-25 23:34 | -32.61493 | 147.29422 | 36286 ft | 448 kts | 303° |
| 2026-04-25 23:35 | -32.58074 | 147.23262 | 36284 ft | 447 kts | 303° |
| 2026-04-25 23:35 | -32.54621 | 147.17050 | 36283 ft | 448 kts | 303° |
| 2026-04-25 23:36 | -32.51184 | 147.10873 | 36274 ft | 447 kts | 303° |
| 2026-04-25 23:36 | -32.47765 | 147.04744 | 36271 ft | 445 kts | 303° |
| 2026-04-25 23:37 | -32.44343 | 146.98614 | 36269 ft | 445 kts | 303° |
| 2026-04-25 23:37 | -32.40900 | 146.92461 | 36269 ft | 446 kts | 303° |